Odell, Oregon
Current Conditions -  °F | °C
As of 1:39 PM on Thursday 18 Dec 2014 (Local Time) from K4S2 Reporting Station
Drizzle Drizzle  
Wind Chill:   Ceiling: 1900
Heat Index:   Visibility: 4mi
Dew Point:   Wind: 0mph
Humidity: 87%   Direction: NA
Pressure: 29.98"   Gusts: NA
Location:  45.63°N, 121.55°W
Report Text: K4S2 182139Z AUTO 00000KT 4SM DZ SCT007 BKN019 OVC047 05/03 A2998 RMK AO2 SLPNO
Loading
Personal Weather Stations






























Interactive Weather Map New forecast layout! Learn more

10-Day Weather Forecast

Advertisements
Track Severe Weather on mobile